sensor_id;sensor_type;location;lat;lon;timestamp;temperature;humidity
78289;DHT22;67539;48.752;12.922;2023-06-14T00:02:15;13.40;64.30
78289;DHT22;67539;48.752;12.922;2023-06-14T00:04:43;13.40;64.60
78289;DHT22;67539;48.752;12.922;2023-06-14T00:07:12;13.40;64.80
78289;DHT22;67539;48.752;12.922;2023-06-14T00:09:41;13.30;65.20
78289;DHT22;67539;48.752;12.922;2023-06-14T00:12:09;13.30;66.00
78289;DHT22;67539;48.752;12.922;2023-06-14T00:14:38;13.20;66.20
78289;DHT22;67539;48.752;12.922;2023-06-14T00:17:06;13.20;66.60
78289;DHT22;67539;48.752;12.922;2023-06-14T00:19:35;13.20;66.50
78289;DHT22;67539;48.752;12.922;2023-06-14T00:22:04;13.10;66.20
78289;DHT22;67539;48.752;12.922;2023-06-14T00:24:32;13.10;66.90
78289;DHT22;67539;48.752;12.922;2023-06-14T00:27:00;13.10;67.80
78289;DHT22;67539;48.752;12.922;2023-06-14T00:29:29;13.10;67.40
78289;DHT22;67539;48.752;12.922;2023-06-14T00:31:59;13.00;67.10
78289;DHT22;67539;48.752;12.922;2023-06-14T00:34:28;13.00;67.40
78289;DHT22;67539;48.752;12.922;2023-06-14T00:36:56;13.00;67.80
78289;DHT22;67539;48.752;12.922;2023-06-14T00:39:24;12.90;68.00
78289;DHT22;67539;48.752;12.922;2023-06-14T00:41:52;12.90;68.20
78289;DHT22;67539;48.752;12.922;2023-06-14T00:44:20;12.90;69.10
78289;DHT22;67539;48.752;12.922;2023-06-14T00:46:48;12.80;68.50
78289;DHT22;67539;48.752;12.922;2023-06-14T00:49:19;12.80;69.00
78289;DHT22;67539;48.752;12.922;2023-06-14T00:51:48;12.70;69.70
78289;DHT22;67539;48.752;12.922;2023-06-14T00:54:16;12.70;70.60
78289;DHT22;67539;48.752;12.922;2023-06-14T00:56:44;12.60;71.10
78289;DHT22;67539;48.752;12.922;2023-06-14T00:59:12;12.60;70.80
78289;DHT22;67539;48.752;12.922;2023-06-14T01:01:42;12.50;71.30
78289;DHT22;67539;48.752;12.922;2023-06-14T01:04:10;12.50;72.50
78289;DHT22;67539;48.752;12.922;2023-06-14T01:06:45;12.40;72.40
78289;DHT22;67539;48.752;12.922;2023-06-14T01:09:25;12.30;72.90
78289;DHT22;67539;48.752;12.922;2023-06-14T01:12:00;12.20;74.30
78289;DHT22;67539;48.752;12.922;2023-06-14T01:14:33;12.00;74.90
78289;DHT22;67539;48.752;12.922;2023-06-14T01:17:02;11.90;75.70
78289;DHT22;67539;48.752;12.922;2023-06-14T01:19:32;11.80;76.40
78289;DHT22;67539;48.752;12.922;2023-06-14T01:22:03;11.70;77.80
78289;DHT22;67539;48.752;12.922;2023-06-14T01:24:32;11.60;78.30
78289;DHT22;67539;48.752;12.922;2023-06-14T01:27:02;11.50;79.30
78289;DHT22;67539;48.752;12.922;2023-06-14T01:29:30;11.40;80.90
78289;DHT22;67539;48.752;12.922;2023-06-14T01:32:00;11.40;81.60
78289;DHT22;67539;48.752;12.922;2023-06-14T01:34:30;11.30;82.10
78289;DHT22;67539;48.752;12.922;2023-06-14T01:37:00;11.20;83.10
78289;DHT22;67539;48.752;12.922;2023-06-14T01:39:32;11.20;84.10
78289;DHT22;67539;48.752;12.922;2023-06-14T01:42:01;11.20;84.90
78289;DHT22;67539;48.752;12.922;2023-06-14T01:44:30;11.10;85.90
78289;DHT22;67539;48.752;12.922;2023-06-14T01:47:00;11.10;87.20
78289;DHT22;67539;48.752;12.922;2023-06-14T01:49:29;11.10;88.10
78289;DHT22;67539;48.752;12.922;2023-06-14T01:51:57;11.20;89.30
78289;DHT22;67539;48.752;12.922;2023-06-14T01:54:25;11.20;90.00
78289;DHT22;67539;48.752;12.922;2023-06-14T01:56:55;11.20;90.80
78289;DHT22;67539;48.752;12.922;2023-06-14T01:59:24;11.20;90.70
78289;DHT22;67539;48.752;12.922;2023-06-14T02:01:52;11.20;90.90
78289;DHT22;67539;48.752;12.922;2023-06-14T02:04:20;11.20;91.20
78289;DHT22;67539;48.752;12.922;2023-06-14T02:06:48;11.20;91.20
78289;DHT22;67539;48.752;12.922;2023-06-14T02:09:17;11.20;91.10
78289;DHT22;67539;48.752;12.922;2023-06-14T02:11:45;11.20;91.10
78289;DHT22;67539;48.752;12.922;2023-06-14T02:14:15;11.20;91.10
78289;DHT22;67539;48.752;12.922;2023-06-14T02:16:43;11.20;91.20
78289;DHT22;67539;48.752;12.922;2023-06-14T02:19:15;11.20;91.50
78289;DHT22;67539;48.752;12.922;2023-06-14T02:21:44;11.10;91.90
78289;DHT22;67539;48.752;12.922;2023-06-14T02:24:12;11.10;91.90
78289;DHT22;67539;48.752;12.922;2023-06-14T02:26:40;11.10;91.80
78289;DHT22;67539;48.752;12.922;2023-06-14T02:29:12;11.10;92.40
78289;DHT22;67539;48.752;12.922;2023-06-14T02:31:43;11.00;92.30
78289;DHT22;67539;48.752;12.922;2023-06-14T02:34:13;11.00;92.70
78289;DHT22;67539;48.752;12.922;2023-06-14T02:36:43;11.10;92.60
78289;DHT22;67539;48.752;12.922;2023-06-14T02:39:11;11.10;92.70
78289;DHT22;67539;48.752;12.922;2023-06-14T02:41:40;11.10;92.90
78289;DHT22;67539;48.752;12.922;2023-06-14T02:44:09;11.00;92.70
78289;DHT22;67539;48.752;12.922;2023-06-14T02:46:38;11.10;92.70
78289;DHT22;67539;48.752;12.922;2023-06-14T02:49:08;11.00;92.70
78289;DHT22;67539;48.752;12.922;2023-06-14T02:51:37;11.00;92.80
78289;DHT22;67539;48.752;12.922;2023-06-14T02:54:05;11.00;93.10
78289;DHT22;67539;48.752;12.922;2023-06-14T02:56:33;10.90;93.00
78289;DHT22;67539;48.752;12.922;2023-06-14T02:59:02;10.80;93.10
78289;DHT22;67539;48.752;12.922;2023-06-14T03:01:31;10.80;93.10
78289;DHT22;67539;48.752;12.922;2023-06-14T03:04:06;10.70;93.10
78289;DHT22;67539;48.752;12.922;2023-06-14T03:06:37;10.70;93.40
78289;DHT22;67539;48.752;12.922;2023-06-14T03:09:07;10.70;93.80
78289;DHT22;67539;48.752;12.922;2023-06-14T03:11:38;10.60;93.80
78289;DHT22;67539;48.752;12.922;2023-06-14T03:14:06;10.60;94.00
78289;DHT22;67539;48.752;12.922;2023-06-14T03:16:36;10.60;94.00
78289;DHT22;67539;48.752;12.922;2023-06-14T03:19:06;10.60;94.10
78289;DHT22;67539;48.752;12.922;2023-06-14T03:21:37;10.50;94.10
78289;DHT22;67539;48.752;12.922;2023-06-14T03:24:06;10.50;94.30
78289;DHT22;67539;48.752;12.922;2023-06-14T03:26:34;10.60;94.80
78289;DHT22;67539;48.752;12.922;2023-06-14T03:29:04;10.60;94.90
78289;DHT22;67539;48.752;12.922;2023-06-14T03:31:33;10.70;94.40
78289;DHT22;67539;48.752;12.922;2023-06-14T03:34:04;10.70;94.40
78289;DHT22;67539;48.752;12.922;2023-06-14T03:36:32;10.80;94.40
78289;DHT22;67539;48.752;12.922;2023-06-14T03:39:01;10.80;94.30
78289;DHT22;67539;48.752;12.922;2023-06-14T03:41:30;10.80;94.30
78289;DHT22;67539;48.752;12.922;2023-06-14T03:43:58;10.80;94.30
78289;DHT22;67539;48.752;12.922;2023-06-14T03:46:26;10.90;94.40
78289;DHT22;67539;48.752;12.922;2023-06-14T03:48:54;10.80;94.40
78289;DHT22;67539;48.752;12.922;2023-06-14T03:51:22;10.90;94.80
78289;DHT22;67539;48.752;12.922;2023-06-14T03:53:52;10.90;94.90
78289;DHT22;67539;48.752;12.922;2023-06-14T03:56:27;10.90;94.90
78289;DHT22;67539;48.752;12.922;2023-06-14T03:58:55;11.00;94.90
78289;DHT22;67539;48.752;12.922;2023-06-14T04:01:26;11.00;94.80
78289;DHT22;67539;48.752;12.922;2023-06-14T04:03:58;11.00;94.80
78289;DHT22;67539;48.752;12.922;2023-06-14T04:06:27;11.00;95.20
78289;DHT22;67539;48.752;12.922;2023-06-14T04:09:00;11.10;95.20
78289;DHT22;67539;48.752;12.922;2023-06-14T04:11:32;11.00;95.20
78289;DHT22;67539;48.752;12.922;2023-06-14T04:14:02;11.00;95.40
78289;DHT22;67539;48.752;12.922;2023-06-14T04:16:30;11.00;95.40
78289;DHT22;67539;48.752;12.922;2023-06-14T04:19:00;11.00;95.60
78289;DHT22;67539;48.752;12.922;2023-06-14T04:21:28;11.00;95.60
78289;DHT22;67539;48.752;12.922;2023-06-14T04:23:59;11.00;95.80
78289;DHT22;67539;48.752;12.922;2023-06-14T04:26:33;11.00;96.00
78289;DHT22;67539;48.752;12.922;2023-06-14T04:29:02;11.10;96.30
78289;DHT22;67539;48.752;12.922;2023-06-14T04:31:34;11.10;96.40
78289;DHT22;67539;48.752;12.922;2023-06-14T04:34:07;11.20;96.30
78289;DHT22;67539;48.752;12.922;2023-06-14T04:36:36;11.20;96.40
78289;DHT22;67539;48.752;12.922;2023-06-14T04:39:05;11.20;96.50
78289;DHT22;67539;48.752;12.922;2023-06-14T04:41:35;11.30;96.50
78289;DHT22;67539;48.752;12.922;2023-06-14T04:44:03;11.40;96.60
78289;DHT22;67539;48.752;12.922;2023-06-14T04:46:37;11.50;96.70
78289;DHT22;67539;48.752;12.922;2023-06-14T04:49:16;11.60;96.80
78289;DHT22;67539;48.752;12.922;2023-06-14T04:51:45;11.60;97.30
78289;DHT22;67539;48.752;12.922;2023-06-14T04:54:14;11.70;97.20
78289;DHT22;67539;48.752;12.922;2023-06-14T04:56:44;11.80;97.10
78289;DHT22;67539;48.752;12.922;2023-06-14T04:59:13;11.90;97.20
78289;DHT22;67539;48.752;12.922;2023-06-14T05:01:44;11.90;97.20
78289;DHT22;67539;48.752;12.922;2023-06-14T05:04:14;12.00;97.50
78289;DHT22;67539;48.752;12.922;2023-06-14T05:06:43;12.10;97.90
78289;DHT22;67539;48.752;12.922;2023-06-14T05:09:13;12.20;98.00
78289;DHT22;67539;48.752;12.922;2023-06-14T05:11:41;12.30;97.70
78289;DHT22;67539;48.752;12.922;2023-06-14T05:14:13;12.40;97.30
78289;DHT22;67539;48.752;12.922;2023-06-14T05:16:41;12.40;97.10
78289;DHT22;67539;48.752;12.922;2023-06-14T05:19:10;12.60;97.10
78289;DHT22;67539;48.752;12.922;2023-06-14T05:21:38;12.70;96.90
78289;DHT22;67539;48.752;12.922;2023-06-14T05:24:09;12.80;96.60
78289;DHT22;67539;48.752;12.922;2023-06-14T05:26:38;12.90;96.10
78289;DHT22;67539;48.752;12.922;2023-06-14T05:29:06;13.00;95.80
78289;DHT22;67539;48.752;12.922;2023-06-14T05:31:36;13.10;95.70
78289;DHT22;67539;48.752;12.922;2023-06-14T05:34:05;13.20;94.70
78289;DHT22;67539;48.752;12.922;2023-06-14T05:36:33;13.30;94.50
78289;DHT22;67539;48.752;12.922;2023-06-14T05:39:03;13.40;94.20
78289;DHT22;67539;48.752;12.922;2023-06-14T05:41:32;13.50;94.00
78289;DHT22;67539;48.752;12.922;2023-06-14T05:44:01;13.60;94.00
78289;DHT22;67539;48.752;12.922;2023-06-14T05:46:29;13.70;93.90
78289;DHT22;67539;48.752;12.922;2023-06-14T05:48:59;13.80;93.90
78289;DHT22;67539;48.752;12.922;2023-06-14T05:51:27;13.90;93.50
78289;DHT22;67539;48.752;12.922;2023-06-14T05:53:55;14.10;93.50
78289;DHT22;67539;48.752;12.922;2023-06-14T05:56:23;14.20;93.00
78289;DHT22;67539;48.752;12.922;2023-06-14T05:58:52;14.40;92.80
78289;DHT22;67539;48.752;12.922;2023-06-14T06:01:20;14.50;92.70
78289;DHT22;67539;48.752;12.922;2023-06-14T06:03:48;14.60;92.50
78289;DHT22;67539;48.752;12.922;2023-06-14T06:06:18;14.70;92.20
78289;DHT22;67539;48.752;12.922;2023-06-14T06:08:46;14.80;92.10
78289;DHT22;67539;48.752;12.922;2023-06-14T06:11:14;14.90;92.00
78289;DHT22;67539;48.752;12.922;2023-06-14T06:13:42;15.10;91.90
78289;DHT22;67539;48.752;12.922;2023-06-14T06:16:10;15.20;91.60
78289;DHT22;67539;48.752;12.922;2023-06-14T06:18:38;15.30;91.40
78289;DHT22;67539;48.752;12.922;2023-06-14T06:21:09;15.50;91.60
78289;DHT22;67539;48.752;12.922;2023-06-14T06:23:38;15.60;91.70
78289;DHT22;67539;48.752;12.922;2023-06-14T06:26:06;15.70;91.40
78289;DHT22;67539;48.752;12.922;2023-06-14T06:28:34;15.90;91.70
78289;DHT22;67539;48.752;12.922;2023-06-14T06:31:02;16.00;91.70
78289;DHT22;67539;48.752;12.922;2023-06-14T06:33:31;16.20;91.40
78289;DHT22;67539;48.752;12.922;2023-06-14T06:35:59;16.30;91.50
78289;DHT22;67539;48.752;12.922;2023-06-14T06:38:27;16.50;91.50
78289;DHT22;67539;48.752;12.922;2023-06-14T06:40:56;16.60;91.10
78289;DHT22;67539;48.752;12.922;2023-06-14T06:43:24;16.70;91.10
78289;DHT22;67539;48.752;12.922;2023-06-14T06:45:53;16.80;90.20
78289;DHT22;67539;48.752;12.922;2023-06-14T06:48:21;16.90;89.70
78289;DHT22;67539;48.752;12.922;2023-06-14T06:50:50;17.10;89.80
78289;DHT22;67539;48.752;12.922;2023-06-14T06:53:18;17.20;89.00
78289;DHT22;67539;48.752;12.922;2023-06-14T06:55:57;17.30;88.10
78289;DHT22;67539;48.752;12.922;2023-06-14T06:58:25;17.40;88.20
78289;DHT22;67539;48.752;12.922;2023-06-14T07:00:54;17.50;86.40
78289;DHT22;67539;48.752;12.922;2023-06-14T07:03:22;17.60;85.80
78289;DHT22;67539;48.752;12.922;2023-06-14T07:05:50;17.70;85.00
78289;DHT22;67539;48.752;12.922;2023-06-14T07:08:18;17.80;84.90
78289;DHT22;67539;48.752;12.922;2023-06-14T07:10:46;17.90;85.30
78289;DHT22;67539;48.752;12.922;2023-06-14T07:13:15;18.00;83.90
78289;DHT22;67539;48.752;12.922;2023-06-14T07:15:44;18.10;82.90
78289;DHT22;67539;48.752;12.922;2023-06-14T07:18:12;18.20;82.80
78289;DHT22;67539;48.752;12.922;2023-06-14T07:20:42;18.30;83.50
78289;DHT22;67539;48.752;12.922;2023-06-14T07:23:10;18.40;83.10
78289;DHT22;67539;48.752;12.922;2023-06-14T07:25:38;18.50;82.40
78289;DHT22;67539;48.752;12.922;2023-06-14T07:28:06;18.60;82.60
78289;DHT22;67539;48.752;12.922;2023-06-14T07:30:36;18.70;82.30
78289;DHT22;67539;48.752;12.922;2023-06-14T07:33:04;18.80;81.20
78289;DHT22;67539;48.752;12.922;2023-06-14T07:35:33;18.90;80.60
78289;DHT22;67539;48.752;12.922;2023-06-14T07:38:01;19.10;79.00
78289;DHT22;67539;48.752;12.922;2023-06-14T07:40:29;19.10;78.70
78289;DHT22;67539;48.752;12.922;2023-06-14T07:42:57;19.30;79.20
78289;DHT22;67539;48.752;12.922;2023-06-14T07:45:25;19.40;79.00
78289;DHT22;67539;48.752;12.922;2023-06-14T07:47:54;19.50;78.30
78289;DHT22;67539;48.752;12.922;2023-06-14T07:50:23;19.60;77.80
78289;DHT22;67539;48.752;12.922;2023-06-14T07:52:51;19.70;77.90
78289;DHT22;67539;48.752;12.922;2023-06-14T07:55:19;19.90;77.70
78289;DHT22;67539;48.752;12.922;2023-06-14T07:57:47;19.90;76.80
78289;DHT22;67539;48.752;12.922;2023-06-14T08:00:17;20.00;75.50
78289;DHT22;67539;48.752;12.922;2023-06-14T08:02:46;20.10;76.20
78289;DHT22;67539;48.752;12.922;2023-06-14T08:05:16;20.20;75.50
78289;DHT22;67539;48.752;12.922;2023-06-14T08:07:44;20.20;75.30
78289;DHT22;67539;48.752;12.922;2023-06-14T08:10:12;20.30;74.30
78289;DHT22;67539;48.752;12.922;2023-06-14T08:12:41;20.40;74.10
78289;DHT22;67539;48.752;12.922;2023-06-14T08:15:10;20.50;72.50
78289;DHT22;67539;48.752;12.922;2023-06-14T08:17:42;20.60;73.00
78289;DHT22;67539;48.752;12.922;2023-06-14T08:20:11;20.70;71.40
78289;DHT22;67539;48.752;12.922;2023-06-14T08:22:41;20.70;70.60
78289;DHT22;67539;48.752;12.922;2023-06-14T08:25:09;20.70;70.90
78289;DHT22;67539;48.752;12.922;2023-06-14T08:27:39;20.80;71.30
78289;DHT22;67539;48.752;12.922;2023-06-14T08:30:08;20.90;71.20
78289;DHT22;67539;48.752;12.922;2023-06-14T08:32:36;21.10;72.50
78289;DHT22;67539;48.752;12.922;2023-06-14T08:35:05;21.20;68.50
78289;DHT22;67539;48.752;12.922;2023-06-14T08:37:38;21.20;69.00
78289;DHT22;67539;48.752;12.922;2023-06-14T08:40:20;21.30;68.50
78289;DHT22;67539;48.752;12.922;2023-06-14T08:42:50;21.40;67.20
78289;DHT22;67539;48.752;12.922;2023-06-14T08:45:19;21.40;67.80
78289;DHT22;67539;48.752;12.922;2023-06-14T08:47:52;21.50;67.80
78289;DHT22;67539;48.752;12.922;2023-06-14T08:50:27;21.60;67.70
78289;DHT22;67539;48.752;12.922;2023-06-14T08:53:00;21.70;67.00
78289;DHT22;67539;48.752;12.922;2023-06-14T08:55:32;21.80;67.90
78289;DHT22;67539;48.752;12.922;2023-06-14T08:58:04;21.90;67.10
78289;DHT22;67539;48.752;12.922;2023-06-14T09:00:32;22.00;64.20
78289;DHT22;67539;48.752;12.922;2023-06-14T09:03:01;22.00;62.30
78289;DHT22;67539;48.752;12.922;2023-06-14T09:05:30;21.90;64.70
78289;DHT22;67539;48.752;12.922;2023-06-14T09:07:58;22.00;64.50
78289;DHT22;67539;48.752;12.922;2023-06-14T09:10:33;22.10;64.10
78289;DHT22;67539;48.752;12.922;2023-06-14T09:13:04;22.10;64.30
78289;DHT22;67539;48.752;12.922;2023-06-14T09:15:32;22.30;64.80
78289;DHT22;67539;48.752;12.922;2023-06-14T09:18:01;22.40;65.20
78289;DHT22;67539;48.752;12.922;2023-06-14T09:20:30;22.60;64.90
78289;DHT22;67539;48.752;12.922;2023-06-14T09:22:59;22.70;64.00
78289;DHT22;67539;48.752;12.922;2023-06-14T09:25:28;22.80;62.70
78289;DHT22;67539;48.752;12.922;2023-06-14T09:28:07;22.90;60.70
78289;DHT22;67539;48.752;12.922;2023-06-14T09:30:37;23.00;60.30
78289;DHT22;67539;48.752;12.922;2023-06-14T09:33:05;23.10;59.60
78289;DHT22;67539;48.752;12.922;2023-06-14T09:35:34;23.10;58.80
78289;DHT22;67539;48.752;12.922;2023-06-14T09:38:03;23.20;57.90
78289;DHT22;67539;48.752;12.922;2023-06-14T09:40:34;23.30;56.50
78289;DHT22;67539;48.752;12.922;2023-06-14T09:43:06;23.30;56.50
78289;DHT22;67539;48.752;12.922;2023-06-14T09:45:37;23.30;56.40
78289;DHT22;67539;48.752;12.922;2023-06-14T09:48:07;23.30;56.10
78289;DHT22;67539;48.752;12.922;2023-06-14T09:50:36;23.30;56.30
78289;DHT22;67539;48.752;12.922;2023-06-14T09:53:06;23.30;56.90
78289;DHT22;67539;48.752;12.922;2023-06-14T09:55:36;23.30;57.80
78289;DHT22;67539;48.752;12.922;2023-06-14T09:58:06;23.40;56.80
78289;DHT22;67539;48.752;12.922;2023-06-14T10:00:37;23.50;57.00
78289;DHT22;67539;48.752;12.922;2023-06-14T10:03:13;23.50;57.10
78289;DHT22;67539;48.752;12.922;2023-06-14T10:05:44;23.60;56.10
78289;DHT22;67539;48.752;12.922;2023-06-14T10:08:15;23.70;56.10
78289;DHT22;67539;48.752;12.922;2023-06-14T10:10:44;23.70;56.10
78289;DHT22;67539;48.752;12.922;2023-06-14T10:13:13;23.80;57.00
78289;DHT22;67539;48.752;12.922;2023-06-14T10:15:48;23.90;56.40
78289;DHT22;67539;48.752;12.922;2023-06-14T10:18:24;23.90;56.20
78289;DHT22;67539;48.752;12.922;2023-06-14T10:21:02;23.90;55.20
78289;DHT22;67539;48.752;12.922;2023-06-14T10:23:33;23.90;55.30
78289;DHT22;67539;48.752;12.922;2023-06-14T10:26:03;23.90;54.70
78289;DHT22;67539;48.752;12.922;2023-06-14T10:28:31;23.90;54.80
78289;DHT22;67539;48.752;12.922;2023-06-14T10:31:08;23.90;54.80
78289;DHT22;67539;48.752;12.922;2023-06-14T10:33:39;23.90;54.60
78289;DHT22;67539;48.752;12.922;2023-06-14T10:36:27;24.00;54.90
78289;DHT22;67539;48.752;12.922;2023-06-14T10:38:58;24.00;54.60
78289;DHT22;67539;48.752;12.922;2023-06-14T10:41:27;24.10;55.40
78289;DHT22;67539;48.752;12.922;2023-06-14T10:44:39;24.10;55.20
78289;DHT22;67539;48.752;12.922;2023-06-14T10:47:10;24.10;55.10
78289;DHT22;67539;48.752;12.922;2023-06-14T10:49:40;24.20;55.10
78289;DHT22;67539;48.752;12.922;2023-06-14T10:52:10;24.20;55.10
78289;DHT22;67539;48.752;12.922;2023-06-14T10:55:03;24.20;54.70
78289;DHT22;67539;48.752;12.922;2023-06-14T10:57:33;24.30;52.80
78289;DHT22;67539;48.752;12.922;2023-06-14T11:00:06;24.40;53.20
78289;DHT22;67539;48.752;12.922;2023-06-14T11:05:55;24.30;51.80
78289;DHT22;67539;48.752;12.922;2023-06-14T11:11:33;24.40;54.10
78289;DHT22;67539;48.752;12.922;2023-06-14T11:14:02;24.50;53.00
78289;DHT22;67539;48.752;12.922;2023-06-14T11:16:30;24.50;53.50
78289;DHT22;67539;48.752;12.922;2023-06-14T11:19:01;24.50;53.20
78289;DHT22;67539;48.752;12.922;2023-06-14T11:21:32;24.60;52.60
78289;DHT22;67539;48.752;12.922;2023-06-14T11:24:01;24.70;52.50
78289;DHT22;67539;48.752;12.922;2023-06-14T11:26:30;24.80;52.30
78289;DHT22;67539;48.752;12.922;2023-06-14T11:29:01;24.80;52.20
78289;DHT22;67539;48.752;12.922;2023-06-14T11:31:29;24.80;51.80
78289;DHT22;67539;48.752;12.922;2023-06-14T11:34:00;24.90;51.70
78289;DHT22;67539;48.752;12.922;2023-06-14T11:36:29;24.90;51.20
78289;DHT22;67539;48.752;12.922;2023-06-14T11:38:59;25.00;51.00
78289;DHT22;67539;48.752;12.922;2023-06-14T11:41:33;25.00;49.70
78289;DHT22;67539;48.752;12.922;2023-06-14T11:44:01;25.00;50.10
78289;DHT22;67539;48.752;12.922;2023-06-14T11:46:30;25.00;48.50
78289;DHT22;67539;48.752;12.922;2023-06-14T11:48:58;25.00;49.60
78289;DHT22;67539;48.752;12.922;2023-06-14T11:51:31;24.90;46.50
78289;DHT22;67539;48.752;12.922;2023-06-14T11:54:00;24.40;45.40
78289;DHT22;67539;48.752;12.922;2023-06-14T11:56:29;23.90;46.60
78289;DHT22;67539;48.752;12.922;2023-06-14T11:58:59;23.70;46.60
78289;DHT22;67539;48.752;12.922;2023-06-14T12:01:29;23.70;47.00
78289;DHT22;67539;48.752;12.922;2023-06-14T12:03:59;23.70;46.50
78289;DHT22;67539;48.752;12.922;2023-06-14T12:06:29;23.80;46.30
78289;DHT22;67539;48.752;12.922;2023-06-14T12:09:03;23.70;47.80
78289;DHT22;67539;48.752;12.922;2023-06-14T12:11:34;23.70;48.50
78289;DHT22;67539;48.752;12.922;2023-06-14T12:14:03;23.80;46.60
78289;DHT22;67539;48.752;12.922;2023-06-14T12:16:32;23.70;46.90
78289;DHT22;67539;48.752;12.922;2023-06-14T12:19:09;24.00;50.00
78289;DHT22;67539;48.752;12.922;2023-06-14T12:21:39;24.20;50.90
78289;DHT22;67539;48.752;12.922;2023-06-14T12:24:09;24.50;48.50
78289;DHT22;67539;48.752;12.922;2023-06-14T12:26:40;24.90;51.50
78289;DHT22;67539;48.752;12.922;2023-06-14T12:29:08;25.30;50.60
78289;DHT22;67539;48.752;12.922;2023-06-14T12:31:39;25.50;48.90
78289;DHT22;67539;48.752;12.922;2023-06-14T12:34:07;25.60;48.50
78289;DHT22;67539;48.752;12.922;2023-06-14T12:36:35;25.80;47.80
78289;DHT22;67539;48.752;12.922;2023-06-14T12:39:09;26.10;49.30
78289;DHT22;67539;48.752;12.922;2023-06-14T12:41:37;26.30;48.20
78289;DHT22;67539;48.752;12.922;2023-06-14T12:44:08;26.50;48.90
78289;DHT22;67539;48.752;12.922;2023-06-14T12:46:36;26.60;49.00
78289;DHT22;67539;48.752;12.922;2023-06-14T12:49:08;26.70;49.40
78289;DHT22;67539;48.752;12.922;2023-06-14T12:51:36;26.80;48.60
78289;DHT22;67539;48.752;12.922;2023-06-14T12:54:04;26.90;47.80
78289;DHT22;67539;48.752;12.922;2023-06-14T12:56:34;26.90;46.30
78289;DHT22;67539;48.752;12.922;2023-06-14T12:59:02;27.00;46.30
78289;DHT22;67539;48.752;12.922;2023-06-14T13:01:30;26.60;44.90
78289;DHT22;67539;48.752;12.922;2023-06-14T13:03:58;26.30;45.10
78289;DHT22;67539;48.752;12.922;2023-06-14T13:06:26;26.10;46.80
78289;DHT22;67539;48.752;12.922;2023-06-14T13:08:56;26.00;45.50
78289;DHT22;67539;48.752;12.922;2023-06-14T13:11:25;25.90;45.90
78289;DHT22;67539;48.752;12.922;2023-06-14T13:13:55;25.70;45.80
78289;DHT22;67539;48.752;12.922;2023-06-14T13:16:23;25.90;49.40
78289;DHT22;67539;48.752;12.922;2023-06-14T13:18:51;26.10;48.20
78289;DHT22;67539;48.752;12.922;2023-06-14T13:21:19;26.30;47.10
78289;DHT22;67539;48.752;12.922;2023-06-14T13:23:47;26.50;48.90
78289;DHT22;67539;48.752;12.922;2023-06-14T13:26:15;26.60;47.80
78289;DHT22;67539;48.752;12.922;2023-06-14T13:28:45;26.70;45.60
78289;DHT22;67539;48.752;12.922;2023-06-14T13:31:14;26.70;47.20
78289;DHT22;67539;48.752;12.922;2023-06-14T13:33:42;26.80;45.20
78289;DHT22;67539;48.752;12.922;2023-06-14T13:36:10;26.70;44.60
78289;DHT22;67539;48.752;12.922;2023-06-14T13:38:38;26.80;45.70
78289;DHT22;67539;48.752;12.922;2023-06-14T13:41:06;26.90;41.40
78289;DHT22;67539;48.752;12.922;2023-06-14T13:43:34;26.70;40.30
78289;DHT22;67539;48.752;12.922;2023-06-14T13:46:02;26.50;41.40
78289;DHT22;67539;48.752;12.922;2023-06-14T13:48:32;26.50;44.50
78289;DHT22;67539;48.752;12.922;2023-06-14T13:51:00;26.80;45.50
78289;DHT22;67539;48.752;12.922;2023-06-14T13:53:31;27.00;44.30
78289;DHT22;67539;48.752;12.922;2023-06-14T13:55:59;27.30;44.00
78289;DHT22;67539;48.752;12.922;2023-06-14T13:58:27;27.60;43.70
78289;DHT22;67539;48.752;12.922;2023-06-14T14:00:55;28.10;43.40
78289;DHT22;67539;48.752;12.922;2023-06-14T14:03:26;29.00;43.10
78289;DHT22;67539;48.752;12.922;2023-06-14T14:05:56;30.30;41.80
78289;DHT22;67539;48.752;12.922;2023-06-14T14:08:24;31.60;40.70
78289;DHT22;67539;48.752;12.922;2023-06-14T14:10:52;32.90;39.80
78289;DHT22;67539;48.752;12.922;2023-06-14T14:13:21;34.20;39.40
78289;DHT22;67539;48.752;12.922;2023-06-14T14:15:49;35.30;38.90
78289;DHT22;67539;48.752;12.922;2023-06-14T14:18:18;36.30;37.50
78289;DHT22;67539;48.752;12.922;2023-06-14T14:20:48;37.00;35.80
78289;DHT22;67539;48.752;12.922;2023-06-14T14:23:17;37.70;32.40
78289;DHT22;67539;48.752;12.922;2023-06-14T14:25:46;37.00;32.90
78289;DHT22;67539;48.752;12.922;2023-06-14T14:28:14;37.50;32.80
78289;DHT22;67539;48.752;12.922;2023-06-14T14:30:45;38.10;33.20
78289;DHT22;67539;48.752;12.922;2023-06-14T14:33:14;38.50;31.90
78289;DHT22;67539;48.752;12.922;2023-06-14T14:35:45;38.80;32.20
78289;DHT22;67539;48.752;12.922;2023-06-14T14:38:14;38.90;32.30
78289;DHT22;67539;48.752;12.922;2023-06-14T14:40:44;39.30;31.40
78289;DHT22;67539;48.752;12.922;2023-06-14T14:43:12;39.60;31.50
78289;DHT22;67539;48.752;12.922;2023-06-14T14:45:40;40.00;31.30
78289;DHT22;67539;48.752;12.922;2023-06-14T14:48:08;40.50;31.90
78289;DHT22;67539;48.752;12.922;2023-06-14T14:50:36;41.10;31.60
78289;DHT22;67539;48.752;12.922;2023-06-14T14:53:05;41.60;30.90
78289;DHT22;67539;48.752;12.922;2023-06-14T14:55:33;41.80;30.70
78289;DHT22;67539;48.752;12.922;2023-06-14T14:58:04;41.80;30.60
78289;DHT22;67539;48.752;12.922;2023-06-14T15:00:33;42.30;30.40
78289;DHT22;67539;48.752;12.922;2023-06-14T15:03:02;42.80;30.50
78289;DHT22;67539;48.752;12.922;2023-06-14T15:05:30;43.10;30.20
78289;DHT22;67539;48.752;12.922;2023-06-14T15:07:58;43.10;29.80
78289;DHT22;67539;48.752;12.922;2023-06-14T15:10:26;42.90;29.60
78289;DHT22;67539;48.752;12.922;2023-06-14T15:12:54;42.90;29.40
78289;DHT22;67539;48.752;12.922;2023-06-14T15:15:23;42.90;29.90
78289;DHT22;67539;48.752;12.922;2023-06-14T15:17:51;42.70;29.90
78289;DHT22;67539;48.752;12.922;2023-06-14T15:20:20;42.90;30.40
78289;DHT22;67539;48.752;12.922;2023-06-14T15:22:48;43.00;30.00
78289;DHT22;67539;48.752;12.922;2023-06-14T15:25:16;42.90;29.20
78289;DHT22;67539;48.752;12.922;2023-06-14T15:27:45;41.30;28.70
78289;DHT22;67539;48.752;12.922;2023-06-14T15:30:13;41.00;29.90
78289;DHT22;67539;48.752;12.922;2023-06-14T15:32:43;41.60;30.30
78289;DHT22;67539;48.752;12.922;2023-06-14T15:35:11;41.80;30.00
78289;DHT22;67539;48.752;12.922;2023-06-14T15:37:39;42.00;29.60